Time;durP1;ratioP1;P1;durP2;ratioP2;P2;SDS_P1;SDS_P2;PMS_P1;PMS_P2;Temp;Humidity;BMP_temperature;BMP_pressure;BME280_temperature;BME280_humidity;BME280_pressure;Samples;Min_cycle;Max_cycle;Signal;HPM_P1;HPM_P2
2021/04/10 00:00:47;;;;;;;8.50;6.40;;;;;;;10.80;37.78;100767.38;3625817;39;20043;-70
2021/04/10 00:03:15;;;;;;;9.75;7.43;;;;;;;10.77;38.10;100759.47;3619923;39;20096;-70
2021/04/10 00:05:44;;;;;;;9.50;6.88;;;;;;;10.76;38.08;100767.81;3623883;39;20126;-70
2021/04/10 00:08:12;;;;;;;8.52;6.38;;;;;;;10.72;37.94;100769.94;3620447;39;20043;-70
2021/04/10 00:10:40;;;;;;;10.27;7.00;;;;;;;10.69;38.10;100772.09;3626494;39;20089;-70
2021/04/10 00:13:08;;;;;;;9.93;7.65;;;;;;;10.67;38.25;100768.63;3625980;39;20073;-70
2021/04/10 00:15:36;;;;;;;9.65;6.63;;;;;;;10.65;38.29;100771.50;3618414;39;20043;-70
2021/04/10 00:18:04;;;;;;;10.65;7.03;;;;;;;10.62;38.40;100771.75;3627843;39;20050;-70
2021/04/10 00:20:32;;;;;;;8.63;6.82;;;;;;;10.60;38.61;100764.69;3622327;39;20307;-71
2021/04/10 00:23:00;;;;;;;9.30;6.57;;;;;;;10.59;38.64;100766.56;3619667;39;20122;-71
2021/04/10 00:25:28;;;;;;;9.80;7.10;;;;;;;10.54;38.64;100766.09;3634445;39;20073;-71
2021/04/10 00:27:56;;;;;;;10.45;7.72;;;;;;;10.54;38.95;100771.56;3620466;39;20159;-71
2021/04/10 00:30:24;;;;;;;9.18;7.05;;;;;;;10.50;39.06;100757.28;3616779;39;20065;-71
2021/04/10 00:32:51;;;;;;;9.07;7.03;;;;;;;10.48;39.08;100759.28;3623252;39;20062;-71
2021/04/10 00:35:19;;;;;;;11.15;6.95;;;;;;;10.46;39.11;100764.03;3628580;39;20050;-70
2021/04/10 00:37:48;;;;;;;10.20;7.10;;;;;;;10.44;39.10;100766.03;3626936;39;20403;-71
2021/04/10 00:40:17;;;;;;;10.32;7.40;;;;;;;10.44;39.41;100778.84;3618455;39;20047;-71
2021/04/10 00:42:44;;;;;;;9.32;7.38;;;;;;;10.42;39.38;100775.38;3624013;39;20047;-71
2021/04/10 00:45:12;;;;;;;9.05;6.88;;;;;;;10.40;39.55;100782.84;3623402;39;20054;-70
2021/04/10 00:47:40;;;;;;;9.82;7.20;;;;;;;10.38;39.56;100785.69;3626062;39;20042;-71
2021/04/10 00:50:08;;;;;;;11.02;7.38;;;;;;;10.37;39.72;100789.44;3617480;39;20047;-71
2021/04/10 00:52:36;;;;;;;9.38;6.70;;;;;;;10.39;39.57;100789.31;3621837;39;20132;-71
2021/04/10 00:55:06;;;;;;;10.95;7.68;;;;;;;10.37;39.82;100785.84;3633323;39;20395;-70
2021/04/10 00:57:34;;;;;;;10.55;7.38;;;;;;;10.34;39.96;100776.03;3629959;39;20046;-70
2021/04/10 01:00:06;;;;;;;10.43;7.47;;;;;;;10.36;40.57;100773.19;3624238;39;20050;-70
2021/04/10 01:02:34;;;;;;;10.55;7.80;;;;;;;10.30;39.86;100774.56;3621777;39;20387;-70
2021/04/10 01:05:04;;;;;;;9.48;7.00;;;;;;;10.32;40.27;100775.31;3627299;39;20360;-71
2021/04/10 01:07:32;;;;;;;9.70;7.53;;;;;;;10.30;39.78;100780.03;3622822;39;20054;-71
2021/04/10 01:10:00;;;;;;;10.48;7.60;;;;;;;10.31;40.27;100775.44;3621503;39;20390;-70
2021/04/10 01:12:38;;;;;;;10.07;7.60;;;;;;;10.31;41.19;100776.28;3629018;39;20051;-71
2021/04/10 01:15:14;;;;;;;10.02;7.78;;;;;;;10.30;41.23;100773.69;3620421;39;20062;-71
2021/04/10 01:17:46;;;;;;;11.68;8.20;;;;;;;10.29;40.76;100767.34;3621610;39;20061;-71
2021/04/10 01:20:36;;;;;;;11.40;8.18;;;;;;;10.27;41.84;100774.84;3628907;39;20150;-71
2021/04/10 01:23:22;;;;;;;10.50;7.80;;;;;;;10.27;41.91;100771.25;3626083;39;20477;-71
2021/04/10 01:26:06;;;;;;;10.68;8.05;;;;;;;10.25;41.84;100765.03;3631779;39;20034;-71
2021/04/10 01:28:51;;;;;;;10.20;8.10;;;;;;;10.24;41.94;100772.38;3626287;39;20055;-71
2021/04/10 01:31:24;;;;;;;13.45;8.85;;;;;;;10.20;41.45;100770.91;3631552;39;20058;-70
2021/04/10 01:33:55;;;;;;;10.43;7.78;;;;;;;10.18;41.06;100764.69;3625016;39;20039;-71
2021/04/10 01:36:30;;;;;;;10.05;7.75;;;;;;;10.19;41.25;100769.16;3618342;39;20079;-70
2021/04/10 01:38:59;;;;;;;10.60;8.50;;;;;;;10.14;40.92;100764.09;3620094;39;20051;-71
2021/04/10 01:41:32;;;;;;;9.90;7.78;;;;;;;10.15;40.89;100771.28;3620022;39;20051;-71
2021/04/10 01:44:01;;;;;;;10.20;8.38;;;;;;;10.15;41.19;100775.88;3624913;39;20042;-71
2021/04/10 01:46:31;;;;;;;9.82;7.72;;;;;;;10.13;41.28;100778.75;3622179;39;20051;-70
2021/04/10 01:49:02;;;;;;;10.77;8.98;;;;;;;10.13;41.19;100780.59;3621519;39;20042;-71
2021/04/10 01:51:36;;;;;;;13.18;10.23;;;;;;;10.12;41.45;100773.44;3624563;39;20151;-71
2021/04/10 01:54:07;;;;;;;14.10;9.88;;;;;;;10.11;41.23;100768.97;3623880;39;20140;-71
2021/04/10 01:56:39;;;;;;;13.15;9.55;;;;;;;10.10;41.38;100765.38;3629568;39;20050;-70
2021/04/10 01:59:16;;;;;;;11.65;9.40;;;;;;;10.09;41.94;100760.03;3624355;39;20051;-70
2021/04/10 02:01:56;;;;;;;12.13;8.65;;;;;;;10.07;41.45;100768.34;3618328;39;20047;-71
2021/04/10 02:04:41;;;;;;;13.48;9.68;;;;;;;10.03;42.07;100772.34;3621474;39;20131;-71
2021/04/10 02:07:12;;;;;;;10.95;7.57;;;;;;;10.03;41.69;100779.69;3625528;39;20058;-74
2021/04/10 02:09:47;;;;;;;11.25;8.40;;;;;;;10.01;42.19;100784.41;3622528;39;20055;-71
2021/04/10 02:12:54;;;;;;;12.98;9.50;;;;;;;10.00;41.64;100779.94;3619070;39;20023;-71
2021/04/10 02:15:38;;;;;;;12.95;10.30;;;;;;;9.99;41.51;100780.94;3627988;39;20069;-71
2021/04/10 02:18:05;;;;;;;14.00;9.77;;;;;;;9.98;41.73;100779.19;3624006;39;20042;-71
2021/04/10 02:20:33;;;;;;;12.10;9.32;;;;;;;9.98;41.92;100774.59;3621229;39;20331;-71
2021/04/10 02:23:03;;;;;;;12.50;9.20;;;;;;;9.97;41.71;100767.41;3620808;39;20079;-71
2021/04/10 02:25:39;;;;;;;11.93;8.73;;;;;;;9.95;41.70;100769.41;3627766;39;20027;-71
2021/04/10 02:28:09;;;;;;;12.15;9.13;;;;;;;9.95;41.83;100765.81;3618212;39;20058;-71
2021/04/10 02:30:38;;;;;;;12.15;9.25;;;;;;;9.94;41.96;100764.94;3624486;39;20139;-71
2021/04/10 02:33:11;;;;;;;12.68;9.93;;;;;;;9.96;42.49;100770.28;3617973;39;20082;-71
2021/04/10 02:35:47;;;;;;;12.52;10.10;;;;;;;9.93;42.44;100763.22;3618017;39;20047;-71
2021/04/10 02:38:18;;;;;;;13.85;9.57;;;;;;;9.90;42.55;100765.31;3618464;39;20083;-71
2021/04/10 02:40:52;;;;;;;13.98;10.45;;;;;;;9.89;42.40;100772.66;3618669;39;20043;-71
2021/04/10 02:43:26;;;;;;;11.23;9.10;;;;;;;9.90;42.95;100762.59;3618071;39;20047;-70
2021/04/10 02:46:04;;;;;;;12.90;9.93;;;;;;;9.89;43.09;100755.38;3622127;39;20123;-70
2021/04/10 02:48:38;;;;;;;13.07;10.13;;;;;;;9.87;42.46;100757.41;3621060;39;20046;-70
2021/04/10 02:51:09;;;;;;;14.93;10.13;;;;;;;9.85;42.18;100765.72;3613237;39;20310;-70
2021/04/10 02:53:42;;;;;;;13.50;10.05;;;;;;;9.84;42.16;100774.03;3626586;39;20295;-70
2021/04/10 02:56:15;;;;;;;13.82;10.57;;;;;;;9.83;42.92;100775.91;3628413;39;20050;-70
2021/04/10 02:58:48;;;;;;;12.13;10.25;;;;;;;9.83;42.56;100775.03;3618790;39;20395;-70
2021/04/10 03:01:22;;;;;;;15.73;11.43;;;;;;;9.82;42.44;100776.03;3618925;39;20151;-70
2021/04/10 03:03:51;;;;;;;14.10;10.10;;;;;;;9.82;42.46;100779.63;3618979;39;20058;-70
2021/04/10 03:06:20;;;;;;;13.80;10.20;;;;;;;9.79;42.06;100776.31;3624396;39;20076;-71
2021/04/10 03:08:48;;;;;;;12.65;9.77;;;;;;;9.78;42.13;100788.22;3620570;39;20131;-71
2021/04/10 03:11:19;;;;;;;13.70;10.65;;;;;;;9.77;42.52;100790.09;3621982;39;20059;-71
2021/04/10 03:13:47;;;;;;;13.85;9.77;;;;;;;9.76;42.25;100793.81;3617648;39;20051;-71
2021/04/10 03:16:28;;;;;;;12.82;9.82;;;;;;;9.77;42.72;100795.56;3622541;39;20061;-71
2021/04/10 03:18:59;;;;;;;13.90;10.50;;;;;;;9.76;42.52;100796.53;3618757;39;20128;-71
2021/04/10 03:21:32;;;;;;;14.10;10.52;;;;;;;9.74;42.43;100791.22;3618102;39;20062;-71
2021/04/10 03:24:07;;;;;;;13.63;9.70;;;;;;;9.73;42.85;100794.94;3629608;39;20051;-71
2021/04/10 03:26:36;;;;;;;15.93;11.10;;;;;;;9.73;42.70;100796.78;3623398;39;20315;-71
2021/04/10 03:29:07;;;;;;;13.73;9.95;;;;;;;9.72;42.71;100798.66;3624257;39;20077;-71
2021/04/10 03:31:41;;;;;;;12.55;10.15;;;;;;;9.71;42.69;100796.91;3617989;39;20066;-70
2021/04/10 03:34:09;;;;;;;14.07;10.68;;;;;;;9.70;42.79;100808.88;3619864;39;20047;-71
2021/04/10 03:36:39;;;;;;;14.55;10.45;;;;;;;9.70;42.80;100802.53;3621961;39;20055;-71
2021/04/10 03:39:07;;;;;;;15.02;10.88;;;;;;;9.69;42.92;100795.31;3618522;39;20391;-71
2021/04/10 03:41:37;;;;;;;14.82;10.82;;;;;;;9.67;43.03;100800.00;3621290;39;20132;-71
2021/04/10 03:44:07;;;;;;;16.42;10.90;;;;;;;9.67;43.06;100798.16;3624541;39;20412;-71
2021/04/10 03:46:36;;;;;;;14.90;10.57;;;;;;;9.66;42.79;100801.88;3620842;39;20039;-72
2021/04/10 03:49:06;;;;;;;14.25;10.75;;;;;;;9.66;42.99;100807.34;3617141;39;20053;-71
2021/04/10 03:51:34;;;;;;;15.85;10.65;;;;;;;9.65;43.03;100807.47;3620948;39;20127;-71
2021/04/10 03:54:03;;;;;;;14.43;10.98;;;;;;;9.65;43.23;100805.59;3626425;39;20163;-71
2021/04/10 03:56:33;;;;;;;15.57;11.45;;;;;;;9.62;43.30;100805.88;3620922;39;20057;-71
2021/04/10 03:59:12;;;;;;;16.20;11.57;;;;;;;9.62;43.44;100811.34;3618346;39;20055;-71
2021/04/10 04:02:00;;;;;;;15.70;11.55;;;;;;;9.62;42.89;100807.72;3621689;39;20034;-71
2021/04/10 04:04:33;;;;;;;19.58;12.90;;;;;;;9.62;43.29;100805.88;3611198;39;20054;-71
2021/04/10 04:07:01;;;;;;;15.35;10.38;;;;;;;9.61;43.32;100811.47;3618784;39;20381;-71
2021/04/10 04:09:29;;;;;;;17.40;12.80;;;;;;;9.59;43.25;100817.03;3622166;39;20142;-71
2021/04/10 04:11:56;;;;;;;16.25;11.77;;;;;;;9.59;43.26;100819.78;3619831;39;20123;-71
2021/04/10 04:14:24;;;;;;;16.60;11.65;;;;;;;9.58;43.06;100825.34;3619617;39;20059;-71
2021/04/10 04:16:51;;;;;;;14.48;11.07;;;;;;;9.57;43.77;100827.22;3620212;39;20051;-71
2021/04/10 04:19:22;;;;;;;16.25;11.65;;;;;;;9.58;43.22;100833.53;3621443;39;20047;-71
2021/04/10 04:21:51;;;;;;;17.45;12.23;;;;;;;9.56;43.29;100828.22;3622146;39;20054;-71
2021/04/10 04:24:18;;;;;;;17.00;12.20;;;;;;;9.55;43.53;100831.94;3627989;39;20280;-71
2021/04/10 04:26:46;;;;;;;15.63;11.90;;;;;;;9.54;43.37;100830.22;3620597;39;20116;-71
2021/04/10 04:29:13;;;;;;;15.80;11.45;;;;;;;9.55;43.51;100831.06;3620750;39;20075;-71
2021/04/10 04:31:41;;;;;;;16.10;11.15;;;;;;;9.54;43.53;100823.88;3618832;39;20059;-71
2021/04/10 04:34:08;;;;;;;15.98;12.05;;;;;;;9.55;43.56;100831.06;3624715;39;20123;-70
2021/04/10 04:36:36;;;;;;;16.40;11.43;;;;;;;9.54;43.67;100824.75;3623966;39;20059;-71
2021/04/10 04:39:08;;;;;;;16.50;12.60;;;;;;;9.55;43.68;100829.19;3623315;39;20400;-71
2021/04/10 04:41:36;;;;;;;16.73;12.05;;;;;;;9.53;43.71;100819.41;3619226;39;20036;-70
2021/04/10 04:44:04;;;;;;;17.38;11.27;;;;;;;9.51;43.79;100816.81;3622991;39;20039;-72
2021/04/10 04:46:31;;;;;;;17.27;12.80;;;;;;;9.51;43.53;100816.81;3623251;39;20075;-71
2021/04/10 04:48:59;;;;;;;14.70;10.85;;;;;;;9.50;43.40;100812.34;3623102;39;20042;-71
2021/04/10 04:51:27;;;;;;;15.00;11.38;;;;;;;9.50;43.88;100814.19;3628220;39;20050;-71
2021/04/10 04:54:02;;;;;;;15.13;11.68;;;;;;;9.49;43.75;100826.97;3629530;39;20055;-71
2021/04/10 04:56:31;;;;;;;14.77;11.15;;;;;;;9.51;44.12;100826.84;3633698;39;20058;-71
2021/04/10 04:58:59;;;;;;;15.32;10.93;;;;;;;9.49;43.93;100831.56;3622026;39;20296;-71
2021/04/10 05:01:27;;;;;;;15.93;11.32;;;;;;;9.49;43.70;100829.72;3623447;39;20354;-75
2021/04/10 05:03:55;;;;;;;18.25;12.13;;;;;;;9.48;43.96;100833.44;3621593;39;20084;-71
2021/04/10 05:06:22;;;;;;;16.08;10.73;;;;;;;9.48;44.02;100835.28;3625572;39;20107;-72
2021/04/10 05:08:50;;;;;;;15.57;11.23;;;;;;;9.47;44.03;100847.19;3622353;39;20369;-71
2021/04/10 05:11:18;;;;;;;15.70;11.15;;;;;;;9.47;44.04;100848.06;3625432;39;20051;-71
2021/04/10 05:13:46;;;;;;;15.88;11.38;;;;;;;9.47;44.16;100850.81;3628146;39;20435;-72
2021/04/10 05:16:14;;;;;;;16.27;10.70;;;;;;;9.47;44.02;100848.06;3629987;39;20047;-75
2021/04/10 05:18:41;;;;;;;15.32;11.05;;;;;;;9.46;44.11;100848.22;3628793;39;20307;-71
2021/04/10 05:21:09;;;;;;;15.00;11.20;;;;;;;9.46;43.92;100857.28;3620895;39;20392;-71
2021/04/10 05:23:40;;;;;;;14.77;11.23;;;;;;;9.46;43.97;100856.41;3629248;39;20127;-71
2021/04/10 05:26:07;;;;;;;14.90;11.13;;;;;;;9.46;44.28;100859.16;3628146;39;20115;-71
2021/04/10 05:28:36;;;;;;;14.68;11.25;;;;;;;9.45;44.19;100869.19;3619458;39;20059;-71
2021/04/10 05:31:04;;;;;;;14.02;10.55;;;;;;;9.47;44.25;100869.03;3621268;39;20117;-71
2021/04/10 05:33:33;;;;;;;16.45;11.18;;;;;;;9.45;44.08;100865.59;3623008;39;20055;-70
2021/04/10 05:36:00;;;;;;;16.20;11.68;;;;;;;9.45;44.29;100871.06;3624506;39;20051;-71
2021/04/10 05:38:28;;;;;;;17.17;11.88;;;;;;;9.45;44.31;100876.53;3622083;39;20339;-70
2021/04/10 05:40:56;;;;;;;18.20;12.60;;;;;;;9.44;44.45;100883.84;3628082;39;20338;-71
2021/04/10 05:43:36;;;;;;;16.95;11.27;;;;;;;9.44;44.49;100889.31;3622742;39;20058;-71
2021/04/10 05:46:04;;;;;;;16.98;12.05;;;;;;;9.46;44.44;100886.44;3622911;39;20046;-71
2021/04/10 05:48:35;;;;;;;17.57;12.57;;;;;;;9.42;44.45;100893.13;3622321;39;20392;-71
2021/04/10 05:51:04;;;;;;;16.67;11.27;;;;;;;9.44;44.49;100892.03;3621813;39;20054;-71
2021/04/10 05:53:41;;;;;;;15.23;11.40;;;;;;;9.44;44.63;100889.31;3627678;39;20049;-70
2021/04/10 05:56:09;;;;;;;14.07;10.23;;;;;;;9.43;44.63;100892.16;3631794;39;20047;-71
2021/04/10 05:58:37;;;;;;;17.08;11.68;;;;;;;9.45;44.63;100892.91;3620438;39;20104;-70
2021/04/10 06:01:05;;;;;;;17.70;12.38;;;;;;;9.46;44.56;100891.91;3625065;39;20058;-71
2021/04/10 06:03:34;;;;;;;15.68;11.75;;;;;;;9.45;44.65;100895.63;3620496;39;20333;-70
2021/04/10 06:06:01;;;;;;;18.58;12.73;;;;;;;9.45;45.01;100895.63;3622139;39;20058;-71
2021/04/10 06:08:30;;;;;;;17.15;11.93;;;;;;;9.44;45.14;100900.22;3612116;39;20051;-71
2021/04/10 06:10:59;;;;;;;16.02;11.57;;;;;;;9.45;44.80;100892.91;3623708;39;20043;-71
2021/04/10 06:13:27;;;;;;;15.20;11.20;;;;;;;9.46;44.91;100902.84;3625554;39;20395;-71
2021/04/10 06:15:54;;;;;;;15.02;10.80;;;;;;;9.45;44.99;100901.97;3623577;39;20296;-71
2021/04/10 06:18:24;;;;;;;15.40;11.05;;;;;;;9.47;45.14;100904.53;3622926;39;20047;-71
2021/04/10 06:21:04;;;;;;;17.25;11.02;;;;;;;9.45;45.21;100899.22;3622603;39;20049;-71
2021/04/10 06:23:32;;;;;;;15.32;11.20;;;;;;;9.47;45.19;100901.81;3611440;39;20281;-72
2021/04/10 06:26:00;;;;;;;17.77;12.38;;;;;;;9.48;45.20;100901.69;3619858;39;20043;-72
2021/04/10 06:28:28;;;;;;;17.23;12.38;;;;;;;9.48;45.24;100904.44;3622268;39;20507;-72
2021/04/10 06:30:57;;;;;;;18.38;12.98;;;;;;;9.50;45.37;100907.91;3622425;39;20508;-71
2021/04/10 06:33:26;;;;;;;17.30;12.45;;;;;;;9.51;45.31;100912.38;3625192;39;20079;-72
2021/04/10 06:35:53;;;;;;;19.25;13.57;;;;;;;9.52;45.44;100911.41;3626216;39;20142;-72
2021/04/10 06:38:21;;;;;;;18.80;13.13;;;;;;;9.53;45.48;100909.53;3628252;39;20049;-71
2021/04/10 06:40:49;;;;;;;18.00;12.40;;;;;;;9.53;45.43;100910.41;3626755;39;20050;-71
2021/04/10 06:43:17;;;;;;;17.65;12.50;;;;;;;9.56;45.63;100917.47;3624075;39;20388;-71
2021/04/10 06:45:44;;;;;;;19.42;12.07;;;;;;;9.56;45.45;100918.31;3625280;39;20075;-71
2021/04/10 06:48:14;;;;;;;16.33;11.70;;;;;;;9.57;45.67;100911.88;3618612;39;20055;-72
2021/04/10 06:50:44;;;;;;;16.40;12.40;;;;;;;9.59;45.87;100920.81;3620290;39;20039;-72
2021/04/10 06:53:16;;;;;;;15.98;11.10;;;;;;;9.60;46.42;100911.63;3619131;39;20066;-72
2021/04/10 06:55:50;;;;;;;17.98;13.20;;;;;;;9.61;46.83;100918.84;3620073;39;20049;-72
2021/04/10 06:58:32;;;;;;;17.67;12.35;;;;;;;9.62;46.73;100912.38;3619301;39;21161;-72
2021/04/10 07:01:02;;;;;;;17.98;12.13;;;;;;;9.61;45.50;100907.91;3620355;39;20126;-73
2021/04/10 07:03:30;;;;;;;17.92;12.48;;;;;;;9.62;45.81;100906.06;3623181;39;20046;-72
2021/04/10 07:05:59;;;;;;;16.05;10.88;;;;;;;9.64;46.19;100913.09;3620789;39;20043;-71
2021/04/10 07:08:26;;;;;;;17.48;12.30;;;;;;;9.66;45.91;100913.84;3621982;39;20328;-71
2021/04/10 07:10:55;;;;;;;16.52;11.68;;;;;;;9.68;46.22;100917.38;3621536;39;20138;-73
2021/04/10 07:13:22;;;;;;;18.13;11.50;;;;;;;9.69;46.02;100920.97;3625993;39;20047;-72
2021/04/10 07:15:50;;;;;;;19.95;12.65;;;;;;;9.71;46.01;100919.00;3623447;39;20360;-72
2021/04/10 07:18:18;;;;;;;20.02;13.77;;;;;;;9.73;46.07;100922.44;3622170;39;20059;-72
2021/04/10 07:20:45;;;;;;;16.98;11.88;;;;;;;9.76;46.09;100927.66;3624725;39;20072;-71
2021/04/10 07:23:14;;;;;;;17.33;11.88;;;;;;;9.80;46.31;100923.69;3622787;39;20408;-72
2021/04/10 07:25:45;;;;;;;17.88;11.63;;;;;;;9.81;46.57;100930.88;3620928;39;20054;-72
2021/04/10 07:28:25;;;;;;;19.52;12.77;;;;;;;9.85;47.31;100926.91;3626364;39;20135;-72
2021/04/10 07:30:54;;;;;;;15.15;10.85;;;;;;;9.86;46.30;100927.78;3620213;39;20051;-72
2021/04/10 07:33:23;;;;;;;19.05;12.60;;;;;;;9.88;46.30;100932.09;3627409;39;20046;-72
2021/04/10 07:35:50;;;;;;;17.08;11.70;;;;;;;9.92;46.20;100944.53;3627184;39;20403;-71
2021/04/10 07:38:26;;;;;;;14.73;10.48;;;;;;;9.98;47.17;100943.16;3622242;39;20050;-72
2021/04/10 07:40:54;;;;;;;14.25;10.32;;;;;;;9.97;46.31;100938.69;3618217;39;20104;-72
2021/04/10 07:43:30;;;;;;;15.68;10.77;;;;;;;10.02;46.76;100942.78;3625928;39;20385;-72
2021/04/10 07:46:21;;;;;;;13.68;9.85;;;;;;;10.03;46.95;100943.66;3622499;39;20047;-72
2021/04/10 07:49:03;;;;;;;14.52;10.18;;;;;;;10.05;47.09;100948.00;3624840;39;20043;-72
2021/04/10 07:51:32;;;;;;;16.40;11.25;;;;;;;10.06;46.05;100935.19;3619926;39;20050;-73
2021/04/10 07:54:26;;;;;;;16.20;10.15;;;;;;;10.09;46.72;100937.69;3629980;39;20102;-72
2021/04/10 07:56:56;;;;;;;12.45;8.70;;;;;;;10.10;46.38;100939.44;3626514;39;20043;-72
2021/04/10 07:59:24;;;;;;;14.63;9.77;;;;;;;10.11;45.78;100943.91;3629289;39;20055;-73
2021/04/10 08:01:52;;;;;;;16.73;11.05;;;;;;;10.13;46.04;100942.75;3619557;39;20051;-72
2021/04/10 08:04:23;;;;;;;14.90;9.98;;;;;;;10.15;46.09;100943.50;3619822;39;20132;-72
2021/04/10 08:06:59;;;;;;;16.70;10.85;;;;;;;10.19;46.65;100943.25;3622278;39;20392;-72
2021/04/10 08:09:32;;;;;;;13.57;9.93;;;;;;;10.19;46.19;100948.72;3618562;39;20065;-72
2021/04/10 08:12:00;;;;;;;14.60;9.43;;;;;;;10.19;45.92;100946.00;3620884;39;20310;-72
2021/04/10 08:14:40;;;;;;;11.93;8.85;;;;;;;10.24;46.90;100952.81;3619589;39;20047;-73
2021/04/10 08:17:09;;;;;;;14.35;9.48;;;;;;;10.24;46.10;100949.19;3620996;39;20124;-73
2021/04/10 08:19:38;;;;;;;13.98;9.55;;;;;;;10.27;45.96;100954.41;3622775;39;20050;-72
2021/04/10 08:22:07;;;;;;;14.68;9.35;;;;;;;10.30;45.99;100952.28;3626328;39;20050;-72
2021/04/10 08:24:43;;;;;;;14.90;10.00;;;;;;;10.34;46.48;100958.38;3631773;39;20054;-72
2021/04/10 08:27:14;;;;;;;15.13;9.77;;;;;;;10.35;46.17;100963.72;3624590;39;20032;-72
2021/04/10 08:29:44;;;;;;;12.80;8.70;;;;;;;10.38;45.99;100959.84;3629912;39;20054;-72
2021/04/10 08:32:12;;;;;;;15.60;11.32;;;;;;;10.40;46.06;100963.31;3631368;39;20050;-72
2021/04/10 08:34:40;;;;;;;14.60;10.55;;;;;;;10.42;45.90;100955.88;3621610;39;20046;-72
2021/04/10 08:37:10;;;;;;;15.30;10.23;;;;;;;10.45;46.10;100959.19;3626310;39;20057;-73
2021/04/10 08:39:43;;;;;;;14.00;10.38;;;;;;;10.48;46.34;100961.69;3623034;39;20055;-70
2021/04/10 08:42:13;;;;;;;13.75;9.82;;;;;;;10.52;46.34;100965.03;3625247;39;20086;-70
2021/04/10 08:44:41;;;;;;;12.63;9.65;;;;;;;10.53;46.05;100959.41;3624052;39;20091;-72
2021/04/10 08:47:09;;;;;;;13.75;9.65;;;;;;;10.57;46.17;100968.25;3623687;39;20163;-73
2021/04/10 08:49:42;;;;;;;14.98;11.55;;;;;;;10.60;45.93;100968.00;3622012;39;20412;-73
2021/04/10 08:52:15;;;;;;;12.48;9.38;;;;;;;10.63;46.17;100964.97;3623073;39;20059;-73
2021/04/10 08:54:45;;;;;;;13.57;10.23;;;;;;;10.65;45.95;100960.25;3624335;39;20063;-73
2021/04/10 08:57:14;;;;;;;15.55;10.57;;;;;;;10.67;45.76;100962.84;3621261;39;20046;-73
2021/04/10 08:59:44;;;;;;;15.48;10.18;;;;;;;10.69;45.46;100959.00;3621900;39;20059;-73
2021/04/10 09:02:15;;;;;;;14.88;10.55;;;;;;;10.70;45.68;100957.97;3625783;39;20482;-72
2021/04/10 09:05:01;;;;;;;14.30;10.90;;;;;;;10.73;45.93;100963.19;3624037;39;20038;-72
2021/04/10 09:08:02;;;;;;;14.07;9.82;;;;;;;10.72;45.98;100963.31;3626425;39;20050;-72
2021/04/10 09:10:46;;;;;;;14.93;11.02;;;;;;;10.74;46.01;100953.13;3621608;39;20063;-71
2021/04/10 09:13:38;;;;;;;13.38;9.63;;;;;;;10.76;46.20;100962.94;3618447;39;20071;-71
2021/04/10 09:16:40;;;;;;;16.70;11.32;;;;;;;10.71;46.15;100961.59;3625518;39;20114;-72
2021/04/10 09:19:18;;;;;;;13.95;9.45;;;;;;;10.78;46.19;100960.94;3624850;39;20083;-72
2021/04/10 09:21:51;;;;;;;16.80;10.98;;;;;;;10.80;45.98;100967.16;3620540;39;20400;-72
2021/04/10 09:24:30;;;;;;;14.65;10.38;;;;;;;10.80;45.45;100964.41;3623496;39;20076;-71
2021/04/10 09:27:04;;;;;;;16.95;10.77;;;;;;;10.83;45.47;100963.28;3624717;39;20046;-71
2021/04/10 09:29:42;;;;;;;14.63;10.52;;;;;;;10.84;45.75;100971.41;3623699;39;20340;-72
2021/04/10 09:32:11;;;;;;;14.98;10.63;;;;;;;10.83;45.33;100960.56;3624348;39;20185;-72
2021/04/10 09:34:57;;;;;;;16.40;11.05;;;;;;;10.87;45.90;100968.38;3620751;39;20053;-71
2021/04/10 09:37:53;;;;;;;15.35;10.98;;;;;;;10.86;45.90;100963.06;3624186;39;20061;-71
2021/04/10 09:40:25;;;;;;;17.80;11.55;;;;;;;10.88;45.76;100963.78;3624192;39;20054;-71
2021/04/10 09:43:02;;;;;;;14.52;10.88;;;;;;;10.90;45.51;100964.53;3625884;39;20130;-70
2021/04/10 09:45:34;;;;;;;15.50;11.15;;;;;;;10.90;45.60;100965.41;3624584;39;20043;-71
2021/04/10 09:48:35;;;;;;;15.93;11.25;;;;;;;10.90;45.84;100967.25;3623729;39;20400;-71
2021/04/10 09:51:16;;;;;;;14.95;10.57;;;;;;;10.90;45.65;100962.66;3624223;39;20058;-71
2021/04/10 09:53:51;;;;;;;17.40;11.48;;;;;;;10.90;45.73;100970.00;3628500;39;20050;-69
2021/04/10 09:56:19;;;;;;;17.30;11.15;;;;;;;10.89;45.57;100971.00;3621728;39;20055;-71
2021/04/10 09:58:53;;;;;;;15.80;10.88;;;;;;;10.90;45.53;100961.78;3626878;39;20043;-68
2021/04/10 10:01:26;;;;;;;17.52;11.35;;;;;;;10.89;45.42;100969.13;3622921;39;20049;-69
2021/04/10 10:03:55;;;;;;;17.13;12.55;;;;;;;10.87;45.76;100962.03;3630291;39;20078;-70
2021/04/10 10:06:26;;;;;;;14.63;11.00;;;;;;;10.88;45.64;100959.19;3621800;39;20102;-71
2021/04/10 10:08:54;;;;;;;18.40;12.98;;;;;;;10.86;45.80;100963.06;3626266;39;20047;-71
2021/04/10 10:11:22;;;;;;;14.07;10.18;;;;;;;10.84;45.46;100960.47;3626787;39;20109;-70
2021/04/10 10:13:54;;;;;;;17.10;11.77;;;;;;;10.84;45.82;100954.13;3628072;39;20054;-70
2021/04/10 10:16:29;;;;;;;15.63;10.63;;;;;;;10.84;46.19;100960.47;3621069;39;20051;-70
2021/04/10 10:18:58;;;;;;;17.15;11.27;;;;;;;10.80;45.81;100952.59;3625038;39;20140;-71
2021/04/10 10:21:26;;;;;;;17.63;11.55;;;;;;;10.79;46.10;100953.59;3623277;39;20042;-70
2021/04/10 10:23:56;;;;;;;18.80;13.27;;;;;;;10.79;46.01;100945.38;3623241;39;20066;-70
2021/04/10 10:26:26;;;;;;;18.33;12.50;;;;;;;10.79;46.22;100946.25;3626628;39;20039;-70
2021/04/10 10:29:01;;;;;;;16.90;11.40;;;;;;;10.79;46.97;100943.50;3624726;39;20086;-71
2021/04/10 10:31:31;;;;;;;15.82;10.35;;;;;;;10.77;46.11;100945.53;3627529;39;20039;-70
2021/04/10 10:34:07;;;;;;;15.57;11.13;;;;;;;10.79;46.55;100934.44;3624215;39;20389;-70
2021/04/10 10:36:38;;;;;;;14.10;10.43;;;;;;;10.78;46.09;100936.31;3620454;39;20055;-70
2021/04/10 10:39:07;;;;;;;14.48;10.48;;;;;;;10.79;46.26;100934.44;3625811;39;20047;-70
2021/04/10 10:41:42;;;;;;;16.25;11.57;;;;;;;10.81;46.98;100935.19;3630083;39;20062;-70
2021/04/10 10:44:12;;;;;;;17.55;12.45;;;;;;;10.80;46.37;100933.44;3625073;39;21401;-70
2021/04/10 10:46:40;;;;;;;18.38;11.65;;;;;;;10.79;46.28;100931.69;3622427;39;20059;-70
2021/04/10 10:49:08;;;;;;;16.48;11.55;;;;;;;10.80;46.29;100931.56;3615327;39;20396;-70
2021/04/10 10:51:37;;;;;;;16.42;11.13;;;;;;;10.83;46.45;100934.09;3623631;39;20077;-70
2021/04/10 10:54:05;;;;;;;15.85;10.95;;;;;;;10.80;46.34;100928.84;3620548;39;20419;-70
2021/04/10 10:56:34;;;;;;;15.18;11.10;;;;;;;10.81;46.49;100926.97;3623775;39;20043;-71
2021/04/10 10:59:04;;;;;;;15.65;10.50;;;;;;;10.81;46.61;100922.38;3623010;39;20051;-70
2021/04/10 11:01:34;;;;;;;17.10;11.10;;;;;;;10.83;46.75;100916.75;3623135;39;20055;-71
2021/04/10 11:04:04;;;;;;;17.95;12.30;;;;;;;10.82;46.66;100918.63;3621267;39;20051;-71
2021/04/10 11:06:34;;;;;;;16.58;11.52;;;;;;;10.84;46.54;100902.13;3626041;39;20051;-70
2021/04/10 11:09:03;;;;;;;14.80;10.25;;;;;;;10.85;46.53;100903.84;3620395;39;20055;-71
2021/04/10 11:11:34;;;;;;;14.43;10.23;;;;;;;10.85;46.67;100901.13;3623781;39;20039;-70
2021/04/10 11:14:02;;;;;;;17.40;11.68;;;;;;;10.85;46.71;100904.72;3624989;39;20063;-70
2021/04/10 11:16:30;;;;;;;17.08;11.65;;;;;;;10.85;46.67;100898.38;3622980;39;20421;-71
2021/04/10 11:19:00;;;;;;;14.77;11.20;;;;;;;10.87;47.04;100904.56;3624629;39;20131;-71
2021/04/10 11:21:31;;;;;;;16.60;11.70;;;;;;;10.85;46.75;100893.78;3617250;39;20054;-70
2021/04/10 11:24:13;;;;;;;17.88;12.73;;;;;;;10.86;47.97;100889.19;3623634;39;20055;-71
2021/04/10 11:26:49;;;;;;;14.68;11.38;;;;;;;10.85;47.49;100893.78;3630982;39;20345;-71
2021/04/10 11:29:20;;;;;;;16.98;12.13;;;;;;;10.83;47.14;100884.81;3622791;39;20046;-72
2021/04/10 11:32:06;;;;;;;16.52;11.25;;;;;;;10.84;47.75;100883.84;3620517;39;20055;-72
2021/04/10 11:34:36;;;;;;;15.32;11.27;;;;;;;10.82;47.10;100874.84;3625523;39;20050;-71
2021/04/10 11:37:05;;;;;;;17.60;12.93;;;;;;;10.82;47.39;100877.59;3623282;39;20042;-71